Terminal Aerodrome Forecast
Issued by NWS

Home | Current Version | Previous Version | Text Only | Print | Product List | Glossary On
Versions: 1 2 3 4 5 6 7 8 9 10 11 12 13 14 15 16 17 18 19 20 21 22 23 24
000
FTUS41 KPHI 011127
TAFMIV
TAF
KMIV 011127Z 0112/0212 05010KT 4SM -DZ BR OVC005
     FM011700 08008KT 3SM -RA BR OVC007
     FM012200 07005KT 2SM -DZ BR OVC005
     FM020500 09003KT 1SM -RADZ BR OVC003=

USA.gov is the U.S. government's official web portal to all federal, state and local government web resources and services.